sensor_id;sensor_type;location;lat;lon;timestamp;P1;durP1;ratioP1;P2;durP2;ratioP2
21645;SDS011;10984;45.712;4.800;2023-09-07T00:00:54;5.70;;;3.25;;
21645;SDS011;10984;45.712;4.800;2023-09-07T00:03:20;6.38;;;3.38;;
21645;SDS011;10984;45.712;4.800;2023-09-07T00:05:45;4.70;;;2.88;;
21645;SDS011;10984;45.712;4.800;2023-09-07T00:08:11;6.38;;;3.65;;
21645;SDS011;10984;45.712;4.800;2023-09-07T00:10:36;6.93;;;3.13;;
21645;SDS011;10984;45.712;4.800;2023-09-07T00:13:03;5.28;;;3.42;;
21645;SDS011;10984;45.712;4.800;2023-09-07T00:15:29;5.55;;;3.47;;
21645;SDS011;10984;45.712;4.800;2023-09-07T00:17:56;5.60;;;3.45;;
21645;SDS011;10984;45.712;4.800;2023-09-07T00:20:22;5.82;;;3.65;;
21645;SDS011;10984;45.712;4.800;2023-09-07T00:22:48;4.75;;;3.00;;
21645;SDS011;10984;45.712;4.800;2023-09-07T00:25:14;7.95;;;3.25;;
21645;SDS011;10984;45.712;4.800;2023-09-07T00:27:40;5.00;;;3.30;;
21645;SDS011;10984;45.712;4.800;2023-09-07T00:30:06;6.75;;;3.33;;
21645;SDS011;10984;45.712;4.800;2023-09-07T00:32:35;5.97;;;3.38;;
21645;SDS011;10984;45.712;4.800;2023-09-07T00:35:01;7.15;;;3.25;;
21645;SDS011;10984;45.712;4.800;2023-09-07T00:37:27;5.68;;;3.40;;
21645;SDS011;10984;45.712;4.800;2023-09-07T00:39:53;7.45;;;3.85;;
21645;SDS011;10984;45.712;4.800;2023-09-07T00:42:18;5.72;;;3.47;;
21645;SDS011;10984;45.712;4.800;2023-09-07T00:44:44;5.90;;;3.45;;
21645;SDS011;10984;45.712;4.800;2023-09-07T00:47:10;4.93;;;2.72;;
21645;SDS011;10984;45.712;4.800;2023-09-07T00:49:36;5.20;;;3.08;;
21645;SDS011;10984;45.712;4.800;2023-09-07T00:52:04;5.18;;;3.30;;
21645;SDS011;10984;45.712;4.800;2023-09-07T00:54:30;4.55;;;3.30;;
21645;SDS011;10984;45.712;4.800;2023-09-07T00:56:56;5.15;;;3.25;;
21645;SDS011;10984;45.712;4.800;2023-09-07T00:59:22;7.72;;;3.95;;
21645;SDS011;10984;45.712;4.800;2023-09-07T01:01:48;5.63;;;3.13;;
21645;SDS011;10984;45.712;4.800;2023-09-07T01:04:14;4.75;;;3.10;;
21645;SDS011;10984;45.712;4.800;2023-09-07T01:06:43;6.65;;;3.08;;
21645;SDS011;10984;45.712;4.800;2023-09-07T01:11:57;7.03;;;3.72;;
21645;SDS011;10984;45.712;4.800;2023-09-07T01:14:22;4.93;;;3.25;;
21645;SDS011;10984;45.712;4.800;2023-09-07T01:16:48;9.32;;;3.17;;
21645;SDS011;10984;45.712;4.800;2023-09-07T01:19:15;6.50;;;3.20;;
21645;SDS011;10984;45.712;4.800;2023-09-07T01:21:41;7.97;;;3.97;;
21645;SDS011;10984;45.712;4.800;2023-09-07T01:26:55;7.38;;;3.55;;
21645;SDS011;10984;45.712;4.800;2023-09-07T01:29:22;4.63;;;3.22;;
21645;SDS011;10984;45.712;4.800;2023-09-07T01:31:48;6.80;;;3.60;;
21645;SDS011;10984;45.712;4.800;2023-09-07T01:34:13;6.63;;;3.60;;
21645;SDS011;10984;45.712;4.800;2023-09-07T01:36:40;5.13;;;3.08;;
21645;SDS011;10984;45.712;4.800;2023-09-07T01:39:06;6.55;;;3.58;;
21645;SDS011;10984;45.712;4.800;2023-09-07T01:41:33;5.03;;;3.00;;
21645;SDS011;10984;45.712;4.800;2023-09-07T01:43:59;7.10;;;2.80;;
21645;SDS011;10984;45.712;4.800;2023-09-07T01:46:24;6.97;;;3.15;;
21645;SDS011;10984;45.712;4.800;2023-09-07T01:48:50;4.75;;;2.90;;
21645;SDS011;10984;45.712;4.800;2023-09-07T01:51:16;6.28;;;3.10;;
21645;SDS011;10984;45.712;4.800;2023-09-07T01:53:41;5.25;;;3.15;;
21645;SDS011;10984;45.712;4.800;2023-09-07T01:56:07;9.45;;;3.47;;
21645;SDS011;10984;45.712;4.800;2023-09-07T01:58:34;7.03;;;3.08;;
21645;SDS011;10984;45.712;4.800;2023-09-07T02:00:59;5.75;;;3.33;;
21645;SDS011;10984;45.712;4.800;2023-09-07T02:03:26;4.25;;;2.50;;
21645;SDS011;10984;45.712;4.800;2023-09-07T02:08:36;5.55;;;3.20;;
21645;SDS011;10984;45.712;4.800;2023-09-07T02:11:01;5.95;;;3.38;;
21645;SDS011;10984;45.712;4.800;2023-09-07T02:13:27;9.50;;;2.95;;
21645;SDS011;10984;45.712;4.800;2023-09-07T02:15:53;5.68;;;3.28;;
21645;SDS011;10984;45.712;4.800;2023-09-07T02:18:19;6.20;;;2.97;;
21645;SDS011;10984;45.712;4.800;2023-09-07T02:20:44;6.57;;;3.15;;
21645;SDS011;10984;45.712;4.800;2023-09-07T02:23:10;16.35;;;3.65;;
21645;SDS011;10984;45.712;4.800;2023-09-07T02:25:36;6.63;;;3.10;;
21645;SDS011;10984;45.712;4.800;2023-09-07T02:28:01;6.32;;;3.20;;
21645;SDS011;10984;45.712;4.800;2023-09-07T02:30:27;5.15;;;3.40;;
21645;SDS011;10984;45.712;4.800;2023-09-07T02:32:53;9.57;;;3.53;;
21645;SDS011;10984;45.712;4.800;2023-09-07T02:35:18;6.53;;;3.58;;
21645;SDS011;10984;45.712;4.800;2023-09-07T02:37:44;6.65;;;3.65;;
21645;SDS011;10984;45.712;4.800;2023-09-07T02:40:10;15.15;;;4.82;;
21645;SDS011;10984;45.712;4.800;2023-09-07T02:42:36;6.60;;;3.42;;
21645;SDS011;10984;45.712;4.800;2023-09-07T02:45:02;6.38;;;3.58;;
21645;SDS011;10984;45.712;4.800;2023-09-07T02:47:28;5.90;;;3.80;;
21645;SDS011;10984;45.712;4.800;2023-09-07T02:49:53;7.50;;;4.18;;
21645;SDS011;10984;45.712;4.800;2023-09-07T02:52:19;7.20;;;3.70;;
21645;SDS011;10984;45.712;4.800;2023-09-07T02:54:45;5.93;;;4.18;;
21645;SDS011;10984;45.712;4.800;2023-09-07T02:57:11;7.07;;;3.75;;
21645;SDS011;10984;45.712;4.800;2023-09-07T02:59:37;5.72;;;3.67;;
21645;SDS011;10984;45.712;4.800;2023-09-07T03:02:03;9.18;;;3.97;;
21645;SDS011;10984;45.712;4.800;2023-09-07T03:04:28;5.97;;;4.05;;
21645;SDS011;10984;45.712;4.800;2023-09-07T03:06:54;6.72;;;3.70;;
21645;SDS011;10984;45.712;4.800;2023-09-07T03:09:20;6.93;;;3.88;;
21645;SDS011;10984;45.712;4.800;2023-09-07T03:11:45;6.28;;;3.70;;
21645;SDS011;10984;45.712;4.800;2023-09-07T03:14:11;5.28;;;3.55;;
21645;SDS011;10984;45.712;4.800;2023-09-07T03:16:36;7.13;;;4.47;;
21645;SDS011;10984;45.712;4.800;2023-09-07T03:19:03;6.13;;;3.83;;
21645;SDS011;10984;45.712;4.800;2023-09-07T03:21:29;6.35;;;3.90;;
21645;SDS011;10984;45.712;4.800;2023-09-07T03:23:56;5.47;;;3.70;;
21645;SDS011;10984;45.712;4.800;2023-09-07T03:26:22;6.93;;;3.80;;
21645;SDS011;10984;45.712;4.800;2023-09-07T03:28:47;14.02;;;3.75;;
21645;SDS011;10984;45.712;4.800;2023-09-07T03:31:13;6.38;;;3.97;;
21645;SDS011;10984;45.712;4.800;2023-09-07T03:33:38;5.85;;;3.75;;
21645;SDS011;10984;45.712;4.800;2023-09-07T03:36:04;4.88;;;3.45;;
21645;SDS011;10984;45.712;4.800;2023-09-07T03:38:30;5.57;;;3.80;;
21645;SDS011;10984;45.712;4.800;2023-09-07T03:40:55;5.35;;;3.50;;
21645;SDS011;10984;45.712;4.800;2023-09-07T03:43:21;5.55;;;3.60;;
21645;SDS011;10984;45.712;4.800;2023-09-07T03:45:47;6.63;;;3.88;;
21645;SDS011;10984;45.712;4.800;2023-09-07T03:48:12;5.28;;;3.83;;
21645;SDS011;10984;45.712;4.800;2023-09-07T03:50:38;5.28;;;3.70;;
21645;SDS011;10984;45.712;4.800;2023-09-07T03:53:03;5.90;;;3.88;;
21645;SDS011;10984;45.712;4.800;2023-09-07T03:55:29;7.60;;;3.92;;
21645;SDS011;10984;45.712;4.800;2023-09-07T03:58:04;4.82;;;3.40;;
21645;SDS011;10984;45.712;4.800;2023-09-07T04:00:30;6.65;;;3.92;;
21645;SDS011;10984;45.712;4.800;2023-09-07T04:02:56;5.22;;;3.50;;
21645;SDS011;10984;45.712;4.800;2023-09-07T04:05:21;7.13;;;4.05;;
21645;SDS011;10984;45.712;4.800;2023-09-07T04:07:47;5.95;;;3.60;;
21645;SDS011;10984;45.712;4.800;2023-09-07T04:10:15;6.07;;;3.80;;
21645;SDS011;10984;45.712;4.800;2023-09-07T04:12:40;8.27;;;3.95;;
21645;SDS011;10984;45.712;4.800;2023-09-07T04:15:06;5.88;;;3.90;;
21645;SDS011;10984;45.712;4.800;2023-09-07T04:17:32;8.18;;;4.50;;
21645;SDS011;10984;45.712;4.800;2023-09-07T04:20:05;6.50;;;3.80;;
21645;SDS011;10984;45.712;4.800;2023-09-07T04:22:32;6.55;;;3.60;;
21645;SDS011;10984;45.712;4.800;2023-09-07T04:24:58;6.60;;;3.85;;
21645;SDS011;10984;45.712;4.800;2023-09-07T04:27:23;6.53;;;4.18;;
21645;SDS011;10984;45.712;4.800;2023-09-07T04:29:49;7.47;;;3.75;;
21645;SDS011;10984;45.712;4.800;2023-09-07T04:32:15;6.70;;;4.45;;
21645;SDS011;10984;45.712;4.800;2023-09-07T04:34:40;5.63;;;3.35;;
21645;SDS011;10984;45.712;4.800;2023-09-07T04:37:06;5.85;;;3.45;;
21645;SDS011;10984;45.712;4.800;2023-09-07T04:39:31;6.93;;;3.70;;
21645;SDS011;10984;45.712;4.800;2023-09-07T04:41:57;8.43;;;3.78;;
21645;SDS011;10984;45.712;4.800;2023-09-07T04:44:23;6.97;;;3.58;;
21645;SDS011;10984;45.712;4.800;2023-09-07T04:46:48;8.77;;;3.97;;
21645;SDS011;10984;45.712;4.800;2023-09-07T04:49:15;7.35;;;3.90;;
21645;SDS011;10984;45.712;4.800;2023-09-07T04:51:40;12.40;;;4.32;;
21645;SDS011;10984;45.712;4.800;2023-09-07T04:54:06;7.22;;;3.85;;
21645;SDS011;10984;45.712;4.800;2023-09-07T04:56:31;7.47;;;3.70;;
21645;SDS011;10984;45.712;4.800;2023-09-07T04:58:57;7.47;;;3.78;;
21645;SDS011;10984;45.712;4.800;2023-09-07T05:01:23;8.65;;;3.88;;
21645;SDS011;10984;45.712;4.800;2023-09-07T05:03:49;6.07;;;3.80;;
21645;SDS011;10984;45.712;4.800;2023-09-07T05:06:16;6.43;;;3.90;;
21645;SDS011;10984;45.712;4.800;2023-09-07T05:08:41;9.00;;;4.07;;
21645;SDS011;10984;45.712;4.800;2023-09-07T05:11:07;10.07;;;4.07;;
21645;SDS011;10984;45.712;4.800;2023-09-07T05:13:33;6.97;;;4.25;;
21645;SDS011;10984;45.712;4.800;2023-09-07T05:15:59;7.70;;;4.53;;
21645;SDS011;10984;45.712;4.800;2023-09-07T05:18:26;7.72;;;3.75;;
21645;SDS011;10984;45.712;4.800;2023-09-07T05:20:51;4.90;;;3.17;;
21645;SDS011;10984;45.712;4.800;2023-09-07T05:23:19;6.05;;;3.72;;
21645;SDS011;10984;45.712;4.800;2023-09-07T05:25:46;7.68;;;3.40;;
21645;SDS011;10984;45.712;4.800;2023-09-07T05:28:31;6.10;;;3.85;;
21645;SDS011;10984;45.712;4.800;2023-09-07T05:30:57;9.82;;;4.10;;
21645;SDS011;10984;45.712;4.800;2023-09-07T05:33:22;6.80;;;4.35;;
21645;SDS011;10984;45.712;4.800;2023-09-07T05:35:48;6.20;;;4.22;;
21645;SDS011;10984;45.712;4.800;2023-09-07T05:38:13;7.43;;;4.80;;
21645;SDS011;10984;45.712;4.800;2023-09-07T05:40:40;5.72;;;3.67;;
21645;SDS011;10984;45.712;4.800;2023-09-07T05:43:08;5.50;;;3.75;;
21645;SDS011;10984;45.712;4.800;2023-09-07T05:45:38;5.13;;;3.47;;
21645;SDS011;10984;45.712;4.800;2023-09-07T05:48:05;7.82;;;4.85;;
21645;SDS011;10984;45.712;4.800;2023-09-07T05:50:33;7.95;;;3.78;;
21645;SDS011;10984;45.712;4.800;2023-09-07T05:53:00;6.45;;;3.47;;
21645;SDS011;10984;45.712;4.800;2023-09-07T05:55:25;8.45;;;3.75;;
21645;SDS011;10984;45.712;4.800;2023-09-07T05:57:53;6.53;;;3.92;;
21645;SDS011;10984;45.712;4.800;2023-09-07T06:00:19;6.45;;;4.10;;
21645;SDS011;10984;45.712;4.800;2023-09-07T06:02:45;7.57;;;4.55;;
21645;SDS011;10984;45.712;4.800;2023-09-07T06:05:11;8.70;;;3.80;;
21645;SDS011;10984;45.712;4.800;2023-09-07T06:07:36;7.22;;;3.65;;
21645;SDS011;10984;45.712;4.800;2023-09-07T06:10:02;6.68;;;3.70;;
21645;SDS011;10984;45.712;4.800;2023-09-07T06:12:30;6.40;;;4.18;;
21645;SDS011;10984;45.712;4.800;2023-09-07T06:14:56;9.25;;;4.65;;
21645;SDS011;10984;45.712;4.800;2023-09-07T06:17:22;8.60;;;4.20;;
21645;SDS011;10984;45.712;4.800;2023-09-07T06:19:47;8.80;;;4.65;;
21645;SDS011;10984;45.712;4.800;2023-09-07T06:22:13;10.25;;;4.65;;
21645;SDS011;10984;45.712;4.800;2023-09-07T06:24:40;11.85;;;4.45;;
21645;SDS011;10984;45.712;4.800;2023-09-07T06:27:05;6.20;;;4.38;;
21645;SDS011;10984;45.712;4.800;2023-09-07T06:29:31;8.48;;;4.55;;
21645;SDS011;10984;45.712;4.800;2023-09-07T06:31:57;7.15;;;3.90;;
21645;SDS011;10984;45.712;4.800;2023-09-07T06:34:23;7.80;;;4.10;;
21645;SDS011;10984;45.712;4.800;2023-09-07T06:36:49;5.82;;;3.80;;
21645;SDS011;10984;45.712;4.800;2023-09-07T06:39:14;7.65;;;4.35;;
21645;SDS011;10984;45.712;4.800;2023-09-07T06:41:40;7.18;;;4.35;;
21645;SDS011;10984;45.712;4.800;2023-09-07T06:44:07;7.22;;;3.42;;
21645;SDS011;10984;45.712;4.800;2023-09-07T06:46:32;7.13;;;3.28;;
21645;SDS011;10984;45.712;4.800;2023-09-07T06:48:58;7.60;;;3.40;;
21645;SDS011;10984;45.712;4.800;2023-09-07T06:51:24;7.50;;;2.92;;
21645;SDS011;10984;45.712;4.800;2023-09-07T06:53:49;6.07;;;2.78;;
21645;SDS011;10984;45.712;4.800;2023-09-07T06:56:15;6.20;;;2.85;;
21645;SDS011;10984;45.712;4.800;2023-09-07T06:58:41;7.07;;;2.83;;
21645;SDS011;10984;45.712;4.800;2023-09-07T07:01:06;5.18;;;2.70;;
21645;SDS011;10984;45.712;4.800;2023-09-07T07:03:32;4.95;;;2.88;;
21645;SDS011;10984;45.712;4.800;2023-09-07T07:05:59;6.93;;;2.75;;
21645;SDS011;10984;45.712;4.800;2023-09-07T07:08:25;6.35;;;3.10;;
21645;SDS011;10984;45.712;4.800;2023-09-07T07:10:50;7.40;;;3.17;;
21645;SDS011;10984;45.712;4.800;2023-09-07T07:13:16;4.93;;;2.53;;
21645;SDS011;10984;45.712;4.800;2023-09-07T07:15:42;5.88;;;2.58;;
21645;SDS011;10984;45.712;4.800;2023-09-07T07:18:07;5.80;;;2.95;;
21645;SDS011;10984;45.712;4.800;2023-09-07T07:23:18;6.97;;;2.85;;
21645;SDS011;10984;45.712;4.800;2023-09-07T07:25:43;7.85;;;2.75;;
21645;SDS011;10984;45.712;4.800;2023-09-07T07:28:09;4.97;;;2.63;;
21645;SDS011;10984;45.712;4.800;2023-09-07T07:30:36;5.35;;;2.53;;
21645;SDS011;10984;45.712;4.800;2023-09-07T07:33:02;4.72;;;2.72;;
21645;SDS011;10984;45.712;4.800;2023-09-07T07:35:29;5.18;;;2.55;;
21645;SDS011;10984;45.712;4.800;2023-09-07T07:37:56;6.93;;;2.65;;
21645;SDS011;10984;45.712;4.800;2023-09-07T07:40:21;4.30;;;2.50;;
21645;SDS011;10984;45.712;4.800;2023-09-07T07:42:47;9.73;;;3.05;;
21645;SDS011;10984;45.712;4.800;2023-09-07T07:45:14;4.05;;;2.38;;
21645;SDS011;10984;45.712;4.800;2023-09-07T07:47:44;10.98;;;3.72;;
21645;SDS011;10984;45.712;4.800;2023-09-07T07:50:10;7.60;;;2.80;;
21645;SDS011;10984;45.712;4.800;2023-09-07T07:52:35;5.35;;;2.72;;
21645;SDS011;10984;45.712;4.800;2023-09-07T07:55:01;5.68;;;2.42;;
21645;SDS011;10984;45.712;4.800;2023-09-07T07:57:27;5.32;;;2.53;;
21645;SDS011;10984;45.712;4.800;2023-09-07T07:59:53;6.18;;;2.67;;
21645;SDS011;10984;45.712;4.800;2023-09-07T08:02:20;7.03;;;2.92;;
21645;SDS011;10984;45.712;4.800;2023-09-07T08:04:46;4.68;;;2.50;;
21645;SDS011;10984;45.712;4.800;2023-09-07T08:07:11;5.15;;;2.85;;
21645;SDS011;10984;45.712;4.800;2023-09-07T08:09:37;5.15;;;3.00;;
21645;SDS011;10984;45.712;4.800;2023-09-07T08:12:03;5.13;;;2.53;;
21645;SDS011;10984;45.712;4.800;2023-09-07T08:14:30;8.52;;;2.47;;
21645;SDS011;10984;45.712;4.800;2023-09-07T08:16:56;4.93;;;2.33;;
21645;SDS011;10984;45.712;4.800;2023-09-07T08:19:22;5.72;;;2.67;;
21645;SDS011;10984;45.712;4.800;2023-09-07T08:21:48;4.70;;;2.50;;
21645;SDS011;10984;45.712;4.800;2023-09-07T08:24:14;10.63;;;3.20;;
21645;SDS011;10984;45.712;4.800;2023-09-07T08:26:39;10.00;;;3.33;;
21645;SDS011;10984;45.712;4.800;2023-09-07T08:29:05;5.82;;;2.65;;
21645;SDS011;10984;45.712;4.800;2023-09-07T08:31:32;5.00;;;2.30;;
21645;SDS011;10984;45.712;4.800;2023-09-07T08:34:01;6.22;;;2.42;;
21645;SDS011;10984;45.712;4.800;2023-09-07T08:36:29;9.60;;;2.83;;
21645;SDS011;10984;45.712;4.800;2023-09-07T08:38:57;3.55;;;2.28;;
21645;SDS011;10984;45.712;4.800;2023-09-07T08:41:44;4.88;;;2.70;;
21645;SDS011;10984;45.712;4.800;2023-09-07T08:44:10;6.05;;;2.72;;
21645;SDS011;10984;45.712;4.800;2023-09-07T08:46:37;7.75;;;2.95;;
21645;SDS011;10984;45.712;4.800;2023-09-07T08:49:03;5.72;;;2.42;;
21645;SDS011;10984;45.712;4.800;2023-09-07T08:51:30;4.57;;;2.60;;
21645;SDS011;10984;45.712;4.800;2023-09-07T08:54:14;5.57;;;3.08;;
21645;SDS011;10984;45.712;4.800;2023-09-07T08:56:40;4.97;;;2.90;;
21645;SDS011;10984;45.712;4.800;2023-09-07T08:59:06;4.47;;;2.50;;
21645;SDS011;10984;45.712;4.800;2023-09-07T09:01:32;5.00;;;2.08;;
21645;SDS011;10984;45.712;4.800;2023-09-07T09:03:58;4.60;;;2.70;;
21645;SDS011;10984;45.712;4.800;2023-09-07T09:06:24;5.43;;;2.33;;
21645;SDS011;10984;45.712;4.800;2023-09-07T09:08:53;6.13;;;2.80;;
21645;SDS011;10984;45.712;4.800;2023-09-07T09:11:20;5.55;;;2.80;;
21645;SDS011;10984;45.712;4.800;2023-09-07T09:13:48;4.25;;;2.53;;
21645;SDS011;10984;45.712;4.800;2023-09-07T09:16:14;5.50;;;2.80;;
21645;SDS011;10984;45.712;4.800;2023-09-07T09:21:25;6.30;;;2.63;;
21645;SDS011;10984;45.712;4.800;2023-09-07T09:23:52;7.15;;;2.80;;
21645;SDS011;10984;45.712;4.800;2023-09-07T09:26:21;7.63;;;2.70;;
21645;SDS011;10984;45.712;4.800;2023-09-07T09:28:48;3.92;;;2.22;;
21645;SDS011;10984;45.712;4.800;2023-09-07T09:31:15;4.20;;;2.30;;
21645;SDS011;10984;45.712;4.800;2023-09-07T09:33:42;4.93;;;2.65;;
21645;SDS011;10984;45.712;4.800;2023-09-07T09:36:12;5.10;;;2.80;;
21645;SDS011;10984;45.712;4.800;2023-09-07T09:38:39;5.07;;;3.00;;
21645;SDS011;10984;45.712;4.800;2023-09-07T09:41:05;4.28;;;2.30;;
21645;SDS011;10984;45.712;4.800;2023-09-07T09:43:33;7.70;;;2.45;;
21645;SDS011;10984;45.712;4.800;2023-09-07T09:45:59;4.28;;;2.30;;
21645;SDS011;10984;45.712;4.800;2023-09-07T09:48:26;4.43;;;2.60;;
21645;SDS011;10984;45.712;4.800;2023-09-07T09:50:53;5.95;;;2.25;;
21645;SDS011;10984;45.712;4.800;2023-09-07T09:53:19;4.15;;;2.35;;
21645;SDS011;10984;45.712;4.800;2023-09-07T09:58:29;4.20;;;2.38;;
21645;SDS011;10984;45.712;4.800;2023-09-07T10:00:55;4.13;;;1.98;;
21645;SDS011;10984;45.712;4.800;2023-09-07T10:11:42;4.45;;;2.10;;
21645;SDS011;10984;45.712;4.800;2023-09-07T10:14:07;5.07;;;2.58;;
21645;SDS011;10984;45.712;4.800;2023-09-07T10:22:11;4.40;;;2.33;;
21645;SDS011;10984;45.712;4.800;2023-09-07T10:24:46;4.55;;;2.08;;
21645;SDS011;10984;45.712;4.800;2023-09-07T10:27:24;7.03;;;2.35;;
21645;SDS011;10984;45.712;4.800;2023-09-07T10:29:50;4.82;;;2.40;;
21645;SDS011;10984;45.712;4.800;2023-09-07T10:35:19;5.32;;;2.30;;
21645;SDS011;10984;45.712;4.800;2023-09-07T10:38:03;4.53;;;2.20;;
21645;SDS011;10984;45.712;4.800;2023-09-07T10:40:30;3.80;;;2.00;;
21645;SDS011;10984;45.712;4.800;2023-09-07T10:45:43;4.18;;;2.40;;
21645;SDS011;10984;45.712;4.800;2023-09-07T10:48:10;5.03;;;2.38;;
21645;SDS011;10984;45.712;4.800;2023-09-07T10:56:06;3.80;;;2.47;;
21645;SDS011;10984;45.712;4.800;2023-09-07T10:58:32;5.25;;;2.78;;
21645;SDS011;10984;45.712;4.800;2023-09-07T11:00:59;4.93;;;2.50;;
21645;SDS011;10984;45.712;4.800;2023-09-07T11:03:26;4.07;;;2.17;;
21645;SDS011;10984;45.712;4.800;2023-09-07T11:08:40;3.90;;;2.38;;
21645;SDS011;10984;45.712;4.800;2023-09-07T11:11:07;4.60;;;2.58;;
21645;SDS011;10984;45.712;4.800;2023-09-07T11:13:33;4.70;;;2.42;;
21645;SDS011;10984;45.712;4.800;2023-09-07T11:15:59;4.43;;;2.45;;
21645;SDS011;10984;45.712;4.800;2023-09-07T11:18:25;5.18;;;2.60;;
21645;SDS011;10984;45.712;4.800;2023-09-07T11:20:52;3.65;;;2.10;;
21645;SDS011;10984;45.712;4.800;2023-09-07T11:23:19;5.07;;;2.45;;
21645;SDS011;10984;45.712;4.800;2023-09-07T11:28:31;4.53;;;2.20;;
21645;SDS011;10984;45.712;4.800;2023-09-07T11:30:57;7.30;;;2.70;;
21645;SDS011;10984;45.712;4.800;2023-09-07T11:33:24;4.97;;;1.92;;
21645;SDS011;10984;45.712;4.800;2023-09-07T11:35:50;3.75;;;2.10;;
21645;SDS011;10984;45.712;4.800;2023-09-07T11:38:17;4.07;;;2.28;;
21645;SDS011;10984;45.712;4.800;2023-09-07T11:40:44;6.18;;;2.53;;
21645;SDS011;10984;45.712;4.800;2023-09-07T11:45:54;4.68;;;2.72;;
21645;SDS011;10984;45.712;4.800;2023-09-07T11:48:20;5.47;;;2.33;;
21645;SDS011;10984;45.712;4.800;2023-09-07T11:50:45;6.90;;;2.30;;
21645;SDS011;10984;45.712;4.800;2023-09-07T11:53:11;6.72;;;2.30;;
21645;SDS011;10984;45.712;4.800;2023-09-07T11:55:36;4.20;;;2.10;;
21645;SDS011;10984;45.712;4.800;2023-09-07T11:58:03;4.30;;;2.50;;
21645;SDS011;10984;45.712;4.800;2023-09-07T12:00:48;5.28;;;2.30;;
21645;SDS011;10984;45.712;4.800;2023-09-07T12:03:14;4.60;;;1.90;;
21645;SDS011;10984;45.712;4.800;2023-09-07T12:05:39;4.55;;;2.38;;
21645;SDS011;10984;45.712;4.800;2023-09-07T12:08:07;5.53;;;2.50;;
21645;SDS011;10984;45.712;4.800;2023-09-07T12:10:33;4.70;;;2.60;;
21645;SDS011;10984;45.712;4.800;2023-09-07T12:12:58;6.07;;;2.40;;
21645;SDS011;10984;45.712;4.800;2023-09-07T12:15:24;6.70;;;2.30;;
21645;SDS011;10984;45.712;4.800;2023-09-07T12:17:50;3.53;;;2.22;;
21645;SDS011;10984;45.712;4.800;2023-09-07T12:20:19;5.55;;;2.38;;
21645;SDS011;10984;45.712;4.800;2023-09-07T12:22:45;4.97;;;2.05;;
21645;SDS011;10984;45.712;4.800;2023-09-07T12:25:10;6.30;;;2.58;;
21645;SDS011;10984;45.712;4.800;2023-09-07T12:27:36;4.18;;;2.22;;
21645;SDS011;10984;45.712;4.800;2023-09-07T12:30:02;7.22;;;2.75;;
21645;SDS011;10984;45.712;4.800;2023-09-07T12:32:33;5.40;;;2.53;;
21645;SDS011;10984;45.712;4.800;2023-09-07T12:34:59;4.82;;;2.28;;
21645;SDS011;10984;45.712;4.800;2023-09-07T12:37:24;4.15;;;2.72;;
21645;SDS011;10984;45.712;4.800;2023-09-07T12:39:50;5.18;;;2.83;;
21645;SDS011;10984;45.712;4.800;2023-09-07T12:42:16;5.93;;;2.60;;
21645;SDS011;10984;45.712;4.800;2023-09-07T12:44:43;5.90;;;2.58;;
21645;SDS011;10984;45.712;4.800;2023-09-07T12:47:09;5.35;;;2.80;;
21645;SDS011;10984;45.712;4.800;2023-09-07T12:49:34;18.30;;;3.45;;
21645;SDS011;10984;45.712;4.800;2023-09-07T12:52:00;4.05;;;2.55;;
21645;SDS011;10984;45.712;4.800;2023-09-07T12:54:28;4.68;;;2.63;;
21645;SDS011;10984;45.712;4.800;2023-09-07T12:56:53;5.22;;;2.67;;
21645;SDS011;10984;45.712;4.800;2023-09-07T12:59:19;6.13;;;2.90;;
21645;SDS011;10984;45.712;4.800;2023-09-07T13:01:44;7.90;;;2.72;;
21645;SDS011;10984;45.712;4.800;2023-09-07T13:04:10;3.72;;;2.47;;
21645;SDS011;10984;45.712;4.800;2023-09-07T13:06:36;6.18;;;2.15;;
21645;SDS011;10984;45.712;4.800;2023-09-07T13:09:02;5.13;;;2.63;;
21645;SDS011;10984;45.712;4.800;2023-09-07T13:11:29;5.45;;;2.90;;
21645;SDS011;10984;45.712;4.800;2023-09-07T13:13:55;4.68;;;2.50;;
21645;SDS011;10984;45.712;4.800;2023-09-07T13:16:21;5.05;;;2.65;;
21645;SDS011;10984;45.712;4.800;2023-09-07T13:18:46;4.80;;;2.67;;
21645;SDS011;10984;45.712;4.800;2023-09-07T13:21:12;5.82;;;2.53;;
21645;SDS011;10984;45.712;4.800;2023-09-07T13:23:37;10.65;;;2.67;;
21645;SDS011;10984;45.712;4.800;2023-09-07T13:26:03;4.57;;;2.38;;
21645;SDS011;10984;45.712;4.800;2023-09-07T13:28:29;4.93;;;2.50;;
21645;SDS011;10984;45.712;4.800;2023-09-07T13:30:54;4.75;;;2.30;;
21645;SDS011;10984;45.712;4.800;2023-09-07T13:33:20;6.35;;;2.60;;
21645;SDS011;10984;45.712;4.800;2023-09-07T13:35:46;6.70;;;2.75;;
21645;SDS011;10984;45.712;4.800;2023-09-07T13:38:12;4.78;;;2.80;;
21645;SDS011;10984;45.712;4.800;2023-09-07T13:40:38;5.10;;;2.83;;
21645;SDS011;10984;45.712;4.800;2023-09-07T13:43:04;5.10;;;2.67;;
21645;SDS011;10984;45.712;4.800;2023-09-07T13:45:30;6.60;;;2.97;;
21645;SDS011;10984;45.712;4.800;2023-09-07T13:47:55;4.00;;;2.60;;
21645;SDS011;10984;45.712;4.800;2023-09-07T13:50:21;6.25;;;2.63;;
21645;SDS011;10984;45.712;4.800;2023-09-07T13:52:47;6.93;;;2.97;;
21645;SDS011;10984;45.712;4.800;2023-09-07T13:55:13;4.05;;;2.53;;
21645;SDS011;10984;45.712;4.800;2023-09-07T13:57:39;5.20;;;2.60;;
21645;SDS011;10984;45.712;4.800;2023-09-07T14:00:04;8.23;;;2.80;;
21645;SDS011;10984;45.712;4.800;2023-09-07T14:02:31;6.72;;;2.80;;
21645;SDS011;10984;45.712;4.800;2023-09-07T14:04:57;5.18;;;2.80;;
21645;SDS011;10984;45.712;4.800;2023-09-07T14:07:23;4.60;;;2.63;;
21645;SDS011;10984;45.712;4.800;2023-09-07T14:10:08;5.05;;;2.47;;
21645;SDS011;10984;45.712;4.800;2023-09-07T14:12:34;5.88;;;2.75;;
21645;SDS011;10984;45.712;4.800;2023-09-07T14:14:59;4.95;;;2.80;;
21645;SDS011;10984;45.712;4.800;2023-09-07T14:17:25;4.25;;;2.65;;
21645;SDS011;10984;45.712;4.800;2023-09-07T14:19:51;4.85;;;2.90;;
21645;SDS011;10984;45.712;4.800;2023-09-07T14:22:16;7.50;;;2.60;;
21645;SDS011;10984;45.712;4.800;2023-09-07T14:24:42;7.95;;;2.80;;
21645;SDS011;10984;45.712;4.800;2023-09-07T14:27:07;5.57;;;2.53;;
21645;SDS011;10984;45.712;4.800;2023-09-07T14:29:34;3.75;;;2.47;;
21645;SDS011;10984;45.712;4.800;2023-09-07T14:32:00;5.10;;;2.30;;
21645;SDS011;10984;45.712;4.800;2023-09-07T14:34:26;5.22;;;2.47;;
21645;SDS011;10984;45.712;4.800;2023-09-07T14:36:52;4.07;;;2.60;;
21645;SDS011;10984;45.712;4.800;2023-09-07T14:39:17;3.60;;;2.40;;
21645;SDS011;10984;45.712;4.800;2023-09-07T14:41:48;5.53;;;3.08;;
21645;SDS011;10984;45.712;4.800;2023-09-07T14:44:14;6.22;;;2.65;;
21645;SDS011;10984;45.712;4.800;2023-09-07T14:46:40;4.05;;;2.78;;
21645;SDS011;10984;45.712;4.800;2023-09-07T14:49:06;6.75;;;2.50;;
21645;SDS011;10984;45.712;4.800;2023-09-07T14:51:31;5.80;;;2.80;;
21645;SDS011;10984;45.712;4.800;2023-09-07T14:53:57;6.75;;;3.15;;
21645;SDS011;10984;45.712;4.800;2023-09-07T14:56:24;5.28;;;3.03;;
21645;SDS011;10984;45.712;4.800;2023-09-07T14:58:49;4.47;;;2.30;;
21645;SDS011;10984;45.712;4.800;2023-09-07T15:01:15;4.97;;;2.47;;
21645;SDS011;10984;45.712;4.800;2023-09-07T15:03:41;4.40;;;2.78;;
21645;SDS011;10984;45.712;4.800;2023-09-07T15:06:07;5.05;;;3.10;;
21645;SDS011;10984;45.712;4.800;2023-09-07T15:08:36;4.97;;;2.70;;
21645;SDS011;10984;45.712;4.800;2023-09-07T15:11:02;6.57;;;3.00;;
21645;SDS011;10984;45.712;4.800;2023-09-07T15:13:28;10.38;;;3.60;;
21645;SDS011;10984;45.712;4.800;2023-09-07T15:15:54;6.28;;;2.80;;
21645;SDS011;10984;45.712;4.800;2023-09-07T15:18:20;5.72;;;2.97;;
21645;SDS011;10984;45.712;4.800;2023-09-07T15:20:45;6.03;;;2.88;;
21645;SDS011;10984;45.712;4.800;2023-09-07T15:23:11;4.90;;;2.55;;
21645;SDS011;10984;45.712;4.800;2023-09-07T15:25:36;4.80;;;3.00;;
21645;SDS011;10984;45.712;4.800;2023-09-07T15:28:02;5.38;;;2.55;;
21645;SDS011;10984;45.712;4.800;2023-09-07T15:30:30;4.82;;;2.53;;
21645;SDS011;10984;45.712;4.800;2023-09-07T15:32:56;5.20;;;3.00;;